| |
Missouri Department of Transportation

Social Media Facebook Twitter Flickr Instagram YouTube RSS

Current AWOS Information

 
AWOS Home - General Info for all Airports
Current AWOS for all Airports - Current METAR for all Airports
Glossary - Disclaimer - Other Links


MALDEN--MALDEN REGIONAL--KMAW
 
Recent AWOS History
 
05/27/16     03:02 PM CDT      20:02 GMT
Air Temperature 73°F (23°C ) 1st Cloud Layer Scattered at 900 feet
Dew Point 69°F (21°C) 2nd Cloud Layer Scattered at 1,500 feet
Barometric Pressure 29.88 in Hg. 3rd Cloud Layer Scattered at 2,200 feet
Wind Speed 12 mph (11 knots) Density Altitude 1400 feet
Peak Wind Gusts   Variable Wind Directions  
Wind Direction Quadrant(190°) Variable Visibility  
Visibility 10 statute miles  

Thunderstorm and Precipitation Identification: 
Thunderstorm Remarks: 

Current METAR Record: METAR KMAW 271959Z AUTO 19012G21KT 10SM -DZ SCT009 SCT015 SCT022 23/21 A2988 RMK AO2 P0018

 

 

 

About Us
How Do I...
Contact Us
Missouri Department of Transportation
Central Office
105 W. Capitol Avenue
Jefferson City, MO 65102
1-888-ASK-MODOT (275-6636)
1-866-831-6277 (Motor Carrier Services)
Driver's License Offices
horz_bar
| | |
Missouri State Government
© 2013 Missouri Department of Transportation. All Rights Reserved.   Privacy Policy.
 
 
 
 
RSS FeedYoutubeBlogFlickrTwitter Facebook